Time;durP1;ratioP1;P1;durP2;ratioP2;P2;SDS_P1;SDS_P2;PMS_P1;PMS_P2;Temp;Humidity;BMP_temperature;BMP_pressure;BME280_temperature;BME280_humidity;BME280_pressure;Samples;Min_cycle;Max_cycle;Signal;HPM_P1;HPM_P2
2022/12/25 00:00:35;;;;;;;0.70;0.70;;;;;;;;;;5094386;28;20178;-77
2022/12/25 00:03:01;;;;;;;0.63;0.63;;;;;;;;;;5093410;28;20198;-77
2022/12/25 00:05:27;;;;;;;0.70;0.70;;;;;;;;;;5093936;28;20264;-77
2022/12/25 00:07:53;;;;;;;0.60;0.60;;;;;;;;;;5094175;28;20188;-77
2022/12/25 00:10:19;;;;;;;0.70;0.70;;;;;;;;;;5094462;28;20817;-77
2022/12/25 00:12:45;;;;;;;0.80;0.80;;;;;;;;;;5093392;28;20227;-78
2022/12/25 00:15:11;;;;;;;0.73;0.73;;;;;;;;;;5093813;28;20557;-77
2022/12/25 00:17:37;;;;;;;0.70;0.70;;;;;;;;;;5093963;28;20200;-77
2022/12/25 00:20:03;;;;;;;0.80;0.80;;;;;;;;;;5093659;28;20695;-78
2022/12/25 00:22:29;;;;;;;0.70;0.70;;;;;;;;;;5093556;28;20591;-79
2022/12/25 00:24:55;;;;;;;0.70;0.70;;;;;;;;;;5095432;28;20205;-79
2022/12/25 00:27:21;;;;;;;0.70;0.70;;;;;;;;;;5094246;28;20243;-78
2022/12/25 00:29:47;;;;;;;0.60;0.60;;;;;;;;;;5094330;28;20227;-78
2022/12/25 00:32:13;;;;;;;0.60;0.60;;;;;;;;;;5092973;28;20177;-78
2022/12/25 00:34:39;;;;;;;0.70;0.70;;;;;;;;;;5093148;28;20213;-78
2022/12/25 00:37:05;;;;;;;0.77;0.77;;;;;;;;;;5093978;28;20181;-78
2022/12/25 00:39:31;;;;;;;0.60;0.60;;;;;;;;;;5093436;28;20181;-78
2022/12/25 00:44:41;;;;;;;0.77;0.77;;;;;;;;;;5093459;28;20232;-79
2022/12/25 00:47:07;;;;;;;0.60;0.60;;;;;;;;;;5093603;28;20170;-79
2022/12/25 00:49:33;;;;;;;0.70;0.70;;;;;;;;;;5094173;28;20173;-78
2022/12/25 00:51:59;;;;;;;0.80;0.80;;;;;;;;;;5093282;28;20181;-80
2022/12/25 00:54:25;;;;;;;0.60;0.60;;;;;;;;;;5093132;28;20257;-79
2022/12/25 00:56:51;;;;;;;0.80;0.80;;;;;;;;;;5093226;28;20170;-78
2022/12/25 00:59:17;;;;;;;0.70;0.70;;;;;;;;;;5093157;28;20726;-78
2022/12/25 01:01:43;;;;;;;0.70;0.70;;;;;;;;;;5093044;28;20185;-78
2022/12/25 01:04:09;;;;;;;0.70;0.70;;;;;;;;;;5092892;28;20193;-78
2022/12/25 01:06:35;;;;;;;0.70;0.70;;;;;;;;;;5093117;28;20177;-78
2022/12/25 01:11:46;;;;;;;0.77;0.77;;;;;;;;;;5092563;28;20214;-78
2022/12/25 01:14:12;;;;;;;0.80;0.80;;;;;;;;;;5091770;28;20757;-78
2022/12/25 01:16:38;;;;;;;0.80;0.80;;;;;;;;;;5092944;28;20185;-78
2022/12/25 01:19:04;;;;;;;0.70;0.70;;;;;;;;;;5092910;28;20245;-78
2022/12/25 01:21:30;;;;;;;0.60;0.60;;;;;;;;;;5092276;28;20200;-78
2022/12/25 01:23:56;;;;;;;0.60;0.60;;;;;;;;;;5092048;28;20197;-78
2022/12/25 01:26:23;;;;;;;0.77;0.77;;;;;;;;;;5092579;28;20178;-78
2022/12/25 01:28:49;;;;;;;0.70;0.70;;;;;;;;;;5092973;28;20506;-78
2022/12/25 01:31:16;;;;;;;0.80;0.80;;;;;;;;;;5092933;28;20181;-77
2022/12/25 01:33:43;;;;;;;0.70;0.70;;;;;;;;;;5100175;28;20279;-77
2022/12/25 01:36:16;;;;;;;0.70;0.70;;;;;;;;;;5098464;28;20174;-79
2022/12/25 01:38:43;;;;;;;0.77;0.77;;;;;;;;;;5101969;28;20181;-76
2022/12/25 01:41:10;;;;;;;0.70;0.70;;;;;;;;;;5101155;28;20178;-78
2022/12/25 01:43:55;;;;;;;0.80;0.80;;;;;;;;;;5092496;28;20217;-77
2022/12/25 01:46:21;;;;;;;0.83;0.83;;;;;;;;;;5093123;28;20651;-76
2022/12/25 01:48:47;;;;;;;0.70;0.70;;;;;;;;;;5092351;28;20177;-77
2022/12/25 01:51:25;;;;;;;0.70;0.70;;;;;;;;;;5091412;28;20171;-76
2022/12/25 01:53:52;;;;;;;0.60;0.60;;;;;;;;;;5091515;28;20237;-77
2022/12/25 01:56:18;;;;;;;0.80;0.80;;;;;;;;;;5092145;28;20173;-77
2022/12/25 01:58:44;;;;;;;0.73;0.73;;;;;;;;;;5092554;28;20253;-77
2022/12/25 02:01:10;;;;;;;0.70;0.70;;;;;;;;;;5092181;28;20221;-78
2022/12/25 02:03:38;;;;;;;0.70;0.70;;;;;;;;;;5091334;28;20617;-77
2022/12/25 02:06:05;;;;;;;0.70;0.70;;;;;;;;;;5091702;28;20673;-77
2022/12/25 02:08:31;;;;;;;0.70;0.70;;;;;;;;;;5091353;28;20181;-77
2022/12/25 02:10:57;;;;;;;0.70;0.70;;;;;;;;;;5091777;28;20177;-76
2022/12/25 02:13:23;;;;;;;0.70;0.70;;;;;;;;;;5090778;28;20209;-77
2022/12/25 02:16:05;;;;;;;0.70;0.70;;;;;;;;;;5091546;28;20169;-78
2022/12/25 02:18:37;;;;;;;0.70;0.70;;;;;;;;;;5091511;28;20182;-77
2022/12/25 02:21:22;;;;;;;0.60;0.60;;;;;;;;;;5091268;28;20182;-76
2022/12/25 02:24:03;;;;;;;0.80;0.80;;;;;;;;;;5090829;28;20205;-76
2022/12/25 02:26:41;;;;;;;0.70;0.70;;;;;;;;;;5091883;28;20230;-77
2022/12/25 02:29:10;;;;;;;0.70;0.70;;;;;;;;;;5091314;28;20544;-77
2022/12/25 02:31:48;;;;;;;0.70;0.70;;;;;;;;;;5091262;28;20169;-77
2022/12/25 02:34:20;;;;;;;0.70;0.70;;;;;;;;;;5096667;28;20218;-77
2022/12/25 02:37:07;;;;;;;0.70;0.70;;;;;;;;;;5099737;28;20335;-77
2022/12/25 02:39:57;;;;;;;0.70;0.70;;;;;;;;;;5096483;28;20177;-77
2022/12/25 03:06:41;;;;;;;0.70;0.70;;;;;;;;;;5091171;28;20184;-77
2022/12/25 03:07:21;;;;;;;0.60;0.60;;;;;;;;;;5095416;28;20239;-78
2022/12/25 03:12:38;;;;;;;0.60;0.60;;;;;;;;;;5094373;28;20257;-77
2022/12/25 03:17:50;;;;;;;0.67;0.67;;;;;;;;;;5094785;28;20273;-77
2022/12/25 03:28:35;;;;;;;0.67;0.67;;;;;;;;;;5094960;28;20199;-77
2022/12/25 03:31:13;;;;;;;0.70;0.70;;;;;;;;;;5094649;28;20181;-76
2022/12/25 04:37:43;;;;;;;0.60;0.60;;;;;;;;;;5093327;28;20582;-76
2022/12/25 04:40:09;;;;;;;0.67;0.67;;;;;;;;;;5093085;28;20662;-77
2022/12/25 04:42:35;;;;;;;0.60;0.60;;;;;;;;;;5092507;28;20606;-78
2022/12/25 04:45:01;;;;;;;0.70;0.70;;;;;;;;;;5092972;28;20177;-77
2022/12/25 04:47:27;;;;;;;0.70;0.70;;;;;;;;;;5093249;28;20232;-77
2022/12/25 04:49:53;;;;;;;0.63;0.63;;;;;;;;;;5092987;28;20180;-77
2022/12/25 04:52:19;;;;;;;0.70;0.70;;;;;;;;;;5092426;28;20673;-77
2022/12/25 04:54:45;;;;;;;0.60;0.60;;;;;;;;;;5092710;28;20220;-77
2022/12/25 04:57:11;;;;;;;0.87;0.87;;;;;;;;;;5092845;28;20572;-77
2022/12/25 04:59:37;;;;;;;0.60;0.60;;;;;;;;;;5093028;28;20228;-77
2022/12/25 05:02:03;;;;;;;0.80;0.80;;;;;;;;;;5092517;28;20545;-78
2022/12/25 05:04:29;;;;;;;0.60;0.60;;;;;;;;;;5092740;28;20516;-78
2022/12/25 05:06:54;;;;;;;0.60;0.60;;;;;;;;;;5092782;28;20181;-77
2022/12/25 05:09:20;;;;;;;0.73;0.73;;;;;;;;;;5092578;28;20185;-78
2022/12/25 05:11:46;;;;;;;0.60;0.60;;;;;;;;;;5092415;28;20185;-77
2022/12/25 05:14:12;;;;;;;0.60;0.60;;;;;;;;;;5091967;28;20231;-77
2022/12/25 05:16:38;;;;;;;0.60;0.60;;;;;;;;;;5092325;28;20268;-77
2022/12/25 05:19:04;;;;;;;0.53;0.53;;;;;;;;;;5197366;23;20621;-77
2022/12/25 05:21:30;;;;;;;0.60;0.60;;;;;;;;;;5112658;28;20220;-78
2022/12/25 05:23:56;;;;;;;0.50;0.50;;;;;;;;;;5112379;28;20192;-77
2022/12/25 05:26:23;;;;;;;0.67;0.67;;;;;;;;;;5112768;28;20549;-77
2022/12/25 05:28:49;;;;;;;0.70;0.70;;;;;;;;;;5113525;28;20180;-77
2022/12/25 05:31:16;;;;;;;0.70;0.70;;;;;;;;;;5113549;28;20177;-77
2022/12/25 05:33:42;;;;;;;0.70;0.70;;;;;;;;;;5112733;28;20213;-75
2022/12/25 05:36:09;;;;;;;0.70;0.70;;;;;;;;;;5112604;28;20234;-76
2022/12/25 05:38:35;;;;;;;0.70;0.70;;;;;;;;;;5112262;28;20184;-75
2022/12/25 05:41:01;;;;;;;0.70;0.70;;;;;;;;;;5112051;28;20267;-75
2022/12/25 05:43:27;;;;;;;0.70;0.70;;;;;;;;;;5111713;28;20200;-75
2022/12/25 05:45:53;;;;;;;0.60;0.60;;;;;;;;;;5111915;28;20598;-75
2022/12/25 05:48:19;;;;;;;0.90;0.90;;;;;;;;;;5111907;28;20173;-75
2022/12/25 05:50:45;;;;;;;0.60;0.60;;;;;;;;;;5111948;28;20169;-75
2022/12/25 05:53:12;;;;;;;0.60;0.60;;;;;;;;;;5111279;28;20192;-75
2022/12/25 05:55:40;;;;;;;0.70;0.70;;;;;;;;;;5111718;28;20315;-75
2022/12/25 05:58:07;;;;;;;0.60;0.60;;;;;;;;;;5112039;28;20271;-75
2022/12/25 06:00:33;;;;;;;0.60;0.60;;;;;;;;;;5111931;28;20200;-75
2022/12/25 06:02:59;;;;;;;0.73;0.73;;;;;;;;;;5111267;28;20193;-75
2022/12/25 06:05:25;;;;;;;0.70;0.70;;;;;;;;;;5111879;28;20206;-75
2022/12/25 06:07:51;;;;;;;0.70;0.70;;;;;;;;;;5111698;28;20185;-75
2022/12/25 06:10:17;;;;;;;0.70;0.70;;;;;;;;;;5111629;28;20280;-75
2022/12/25 06:12:43;;;;;;;0.73;0.73;;;;;;;;;;5111214;28;20245;-75
2022/12/25 06:15:09;;;;;;;0.70;0.70;;;;;;;;;;5111701;28;20299;-75
2022/12/25 06:17:35;;;;;;;0.60;0.60;;;;;;;;;;5111530;28;20173;-75
2022/12/25 06:20:01;;;;;;;0.70;0.70;;;;;;;;;;5111572;28;20184;-75
2022/12/25 06:22:28;;;;;;;0.70;0.70;;;;;;;;;;5110970;28;20207;-75
2022/12/25 06:24:54;;;;;;;0.63;0.63;;;;;;;;;;5111188;28;20203;-74
2022/12/25 06:27:20;;;;;;;0.60;0.60;;;;;;;;;;5111718;28;20165;-75
2022/12/25 06:29:46;;;;;;;0.70;0.70;;;;;;;;;;5111413;28;20284;-75
2022/12/25 06:32:12;;;;;;;0.70;0.70;;;;;;;;;;5111043;28;20256;-75
2022/12/25 06:34:38;;;;;;;0.70;0.70;;;;;;;;;;5111352;28;20301;-75
2022/12/25 06:37:04;;;;;;;0.80;0.80;;;;;;;;;;5111345;28;20634;-74
2022/12/25 06:39:29;;;;;;;0.60;0.60;;;;;;;;;;5114884;28;20200;-75
2022/12/25 06:41:55;;;;;;;0.60;0.60;;;;;;;;;;5115363;28;20176;-75
2022/12/25 06:44:21;;;;;;;0.70;0.70;;;;;;;;;;5115460;28;20283;-75
2022/12/25 06:46:47;;;;;;;0.73;0.73;;;;;;;;;;5115457;28;20553;-75
2022/12/25 06:49:13;;;;;;;0.80;0.80;;;;;;;;;;5115389;28;20181;-75
2022/12/25 06:51:39;;;;;;;0.80;0.80;;;;;;;;;;5115261;28;20172;-75
2022/12/25 06:54:05;;;;;;;0.63;0.63;;;;;;;;;;5114577;28;20208;-75
2022/12/25 06:56:32;;;;;;;0.60;0.60;;;;;;;;;;5115419;28;20288;-75
2022/12/25 06:58:59;;;;;;;0.80;0.80;;;;;;;;;;5115445;28;20184;-75
2022/12/25 07:01:37;;;;;;;0.70;0.70;;;;;;;;;;5115184;28;20237;-75
2022/12/25 07:04:05;;;;;;;0.70;0.70;;;;;;;;;;5114344;28;20558;-75
2022/12/25 07:06:31;;;;;;;0.70;0.70;;;;;;;;;;5114840;28;20340;-75
2022/12/25 07:08:57;;;;;;;0.70;0.70;;;;;;;;;;5115152;28;20186;-74
2022/12/25 07:11:23;;;;;;;0.60;0.60;;;;;;;;;;5115093;28;20169;-75
2022/12/25 07:13:49;;;;;;;0.70;0.70;;;;;;;;;;5114234;28;20216;-74
2022/12/25 07:16:15;;;;;;;0.80;0.80;;;;;;;;;;5114770;28;20205;-74
2022/12/25 07:18:41;;;;;;;0.70;0.70;;;;;;;;;;5114666;28;20212;-74
2022/12/25 07:21:08;;;;;;;0.80;0.80;;;;;;;;;;5114628;28;20184;-74
2022/12/25 07:23:34;;;;;;;0.70;0.70;;;;;;;;;;5114401;28;20590;-73
2022/12/25 07:26:01;;;;;;;0.60;0.60;;;;;;;;;;5114496;28;20205;-73
2022/12/25 07:28:27;;;;;;;0.60;0.60;;;;;;;;;;5114610;28;20174;-73
2022/12/25 07:30:53;;;;;;;0.80;0.80;;;;;;;;;;5114642;28;20174;-74
2022/12/25 07:33:20;;;;;;;0.70;0.70;;;;;;;;;;5114663;28;20197;-74
2022/12/25 07:35:46;;;;;;;0.70;0.70;;;;;;;;;;5114305;28;20188;-74
2022/12/25 07:38:12;;;;;;;0.67;0.67;;;;;;;;;;5114577;28;20173;-73
2022/12/25 07:40:38;;;;;;;0.63;0.63;;;;;;;;;;5114573;28;20187;-74
2022/12/25 07:43:04;;;;;;;0.60;0.60;;;;;;;;;;5113566;28;20216;-74
2022/12/25 07:45:30;;;;;;;0.83;0.83;;;;;;;;;;5114333;28;20177;-74
2022/12/25 07:47:56;;;;;;;0.70;0.70;;;;;;;;;;5114144;28;20638;-74
2022/12/25 07:50:22;;;;;;;0.80;0.80;;;;;;;;;;5112763;28;20249;-73
2022/12/25 07:52:48;;;;;;;0.70;0.70;;;;;;;;;;5113684;28;20169;-74
2022/12/25 07:55:14;;;;;;;0.60;0.60;;;;;;;;;;5114165;28;20224;-73
2022/12/25 07:57:40;;;;;;;0.60;0.60;;;;;;;;;;5114237;28;20173;-73
2022/12/25 08:00:06;;;;;;;0.60;0.60;;;;;;;;;;5114067;28;20226;-74
2022/12/25 08:02:32;;;;;;;0.73;0.73;;;;;;;;;;5113483;28;20169;-75
2022/12/25 08:04:58;;;;;;;0.70;0.70;;;;;;;;;;5113837;28;20192;-75
2022/12/25 08:07:26;;;;;;;0.70;0.70;;;;;;;;;;5113855;28;20272;-75
2022/12/25 08:09:52;;;;;;;0.70;0.70;;;;;;;;;;5114106;28;20260;-75
2022/12/25 08:12:17;;;;;;;0.53;0.53;;;;;;;;;;5113474;28;20220;-76
2022/12/25 08:14:43;;;;;;;0.60;0.60;;;;;;;;;;5113686;28;20220;-75
2022/12/25 08:17:09;;;;;;;0.70;0.70;;;;;;;;;;5113810;28;20184;-74
2022/12/25 08:19:35;;;;;;;0.77;0.77;;;;;;;;;;5113591;28;20337;-74
2022/12/25 08:22:01;;;;;;;0.70;0.70;;;;;;;;;;5113263;28;20229;-75
2022/12/25 08:24:27;;;;;;;0.80;0.80;;;;;;;;;;5113660;28;20248;-76
2022/12/25 08:26:53;;;;;;;0.70;0.70;;;;;;;;;;5113582;28;20168;-75
2022/12/25 08:29:19;;;;;;;0.60;0.60;;;;;;;;;;5113461;28;20181;-74
2022/12/25 08:31:45;;;;;;;0.70;0.70;;;;;;;;;;5113376;28;20173;-74
2022/12/25 08:34:11;;;;;;;0.60;0.60;;;;;;;;;;5113043;28;20308;-75
2022/12/25 08:36:37;;;;;;;0.60;0.60;;;;;;;;;;5113505;28;20174;-75
2022/12/25 08:39:03;;;;;;;0.47;0.47;;;;;;;;;;5112679;28;20690;-74
2022/12/25 08:41:29;;;;;;;0.60;0.60;;;;;;;;;;5100224;28;20185;-74
2022/12/25 08:43:55;;;;;;;0.50;0.50;;;;;;;;;;5092785;28;20193;-75
2022/12/25 08:46:21;;;;;;;0.50;0.50;;;;;;;;;;5092730;28;20224;-75
2022/12/25 08:48:48;;;;;;;0.53;0.53;;;;;;;;;;5092642;28;20203;-75
2022/12/25 08:51:15;;;;;;;0.50;0.50;;;;;;;;;;5092710;28;20257;-74
2022/12/25 08:53:42;;;;;;;0.50;0.50;;;;;;;;;;5092664;28;20233;-75
2022/12/25 08:56:08;;;;;;;0.40;0.40;;;;;;;;;;5093078;28;20178;-75
2022/12/25 08:58:34;;;;;;;0.50;0.50;;;;;;;;;;5092679;28;20189;-74
2022/12/25 09:01:01;;;;;;;0.40;0.40;;;;;;;;;;5092052;28;20178;-74
2022/12/25 09:03:26;;;;;;;0.40;0.40;;;;;;;;;;5092209;28;20202;-75
2022/12/25 09:05:54;;;;;;;0.40;0.40;;;;;;;;;;5092769;28;20260;-75
2022/12/25 09:08:21;;;;;;;0.30;0.30;;;;;;;;;;5092516;28;20166;-75
2022/12/25 09:10:47;;;;;;;0.40;0.40;;;;;;;;;;5092686;28;20311;-75
2022/12/25 09:13:13;;;;;;;0.30;0.30;;;;;;;;;;5092979;28;20194;-75
2022/12/25 09:15:39;;;;;;;0.40;0.40;;;;;;;;;;5098481;28;20181;-76
2022/12/25 09:18:05;;;;;;;0.40;0.40;;;;;;;;;;5092063;28;20204;-76
2022/12/25 09:20:32;;;;;;;0.40;0.40;;;;;;;;;;5092255;28;20182;-76
2022/12/25 09:22:57;;;;;;;0.40;0.40;;;;;;;;;;5091340;28;20251;-75
2022/12/25 09:25:23;;;;;;;0.40;0.40;;;;;;;;;;5092143;28;20597;-76
2022/12/25 09:27:49;;;;;;;0.50;0.50;;;;;;;;;;5099663;28;20254;-75
2022/12/25 09:30:15;;;;;;;0.60;0.60;;;;;;;;;;5102527;28;20182;-74
2022/12/25 09:32:41;;;;;;;0.40;0.40;;;;;;;;;;5101449;28;20178;-75
2022/12/25 09:35:08;;;;;;;0.50;0.50;;;;;;;;;;5112362;28;20219;-75
2022/12/25 09:37:34;;;;;;;0.50;0.50;;;;;;;;;;5103385;28;20205;-75
2022/12/25 09:40:00;;;;;;;0.40;0.40;;;;;;;;;;5102328;28;20204;-76
2022/12/25 09:42:27;;;;;;;0.50;0.50;;;;;;;;;;5105722;27;20669;-75
2022/12/25 09:44:58;;;;;;;0.60;0.60;;;;;;;;;;5104200;28;20215;-76
2022/12/25 09:47:26;;;;;;;0.50;0.50;;;;;;;;;;5100724;28;20174;-76
2022/12/25 09:50:01;;;;;;;0.60;0.60;;;;;;;;;;5101047;28;20255;-76
2022/12/25 09:52:46;;;;;;;0.60;0.60;;;;;;;;;;5100218;28;20184;-75
2022/12/25 09:55:13;;;;;;;0.50;0.50;;;;;;;;;;5101212;28;20284;-76
2022/12/25 09:57:39;;;;;;;0.70;0.70;;;;;;;;;;5106156;28;20185;-77
2022/12/25 10:00:16;;;;;;;0.60;0.60;;;;;;;;;;5111869;28;20177;-76
2022/12/25 10:03:00;;;;;;;0.50;0.50;;;;;;;;;;5111260;28;20626;-76
2022/12/25 10:05:45;;;;;;;0.70;0.70;;;;;;;;;;5112475;28;20184;-76
2022/12/25 10:08:20;;;;;;;0.57;0.57;;;;;;;;;;5108990;27;20212;-74
2022/12/25 10:10:46;;;;;;;0.53;0.53;;;;;;;;;;5114107;27;20274;-75
2022/12/25 10:13:30;;;;;;;0.70;0.70;;;;;;;;;;5111834;27;20255;-75
2022/12/25 10:16:15;;;;;;;0.60;0.60;;;;;;;;;;5109887;28;20706;-76
2022/12/25 10:18:47;;;;;;;0.70;0.70;;;;;;;;;;5122464;28;20199;-76
2022/12/25 10:21:16;;;;;;;0.63;0.63;;;;;;;;;;5114272;28;20180;-77
2022/12/25 10:23:46;;;;;;;0.70;0.70;;;;;;;;;;5123698;27;20625;-77
2022/12/25 10:26:16;;;;;;;0.60;0.60;;;;;;;;;;5123715;28;20199;-76
2022/12/25 10:28:44;;;;;;;0.60;0.60;;;;;;;;;;5114934;28;20645;-77
2022/12/25 10:31:19;;;;;;;0.50;0.50;;;;;;;;;;5128111;28;20188;-78
2022/12/25 10:33:45;;;;;;;0.33;0.33;;;;;;;;;;5120021;28;20200;-76
2022/12/25 10:36:12;;;;;;;0.50;0.50;;;;;;;;;;5121373;28;20214;-75
2022/12/25 10:38:38;;;;;;;0.70;0.70;;;;;;;;;;5126455;28;20181;-77
2022/12/25 10:41:04;;;;;;;0.70;0.70;;;;;;;;;;5114166;28;20184;-77
2022/12/25 10:43:35;;;;;;;0.60;0.60;;;;;;;;;;5125033;28;20205;-77
2022/12/25 10:46:01;;;;;;;0.60;0.60;;;;;;;;;;5120709;28;20165;-76
2022/12/25 10:48:30;;;;;;;0.60;0.60;;;;;;;;;;5117262;28;20166;-76
2022/12/25 10:50:56;;;;;;;0.50;0.50;;;;;;;;;;5127593;28;20180;-75
2022/12/25 10:53:24;;;;;;;0.50;0.50;;;;;;;;;;5114645;28;20180;-76
2022/12/25 10:56:01;;;;;;;0.53;0.53;;;;;;;;;;5112746;28;20206;-76
2022/12/25 10:58:28;;;;;;;0.40;0.40;;;;;;;;;;5118203;28;20198;-74
2022/12/25 11:00:56;;;;;;;0.50;0.50;;;;;;;;;;5114065;28;20176;-76
2022/12/25 11:03:24;;;;;;;0.47;0.47;;;;;;;;;;5125511;28;20690;-76
2022/12/25 11:05:50;;;;;;;0.40;0.40;;;;;;;;;;5119061;28;20188;-76
2022/12/25 11:08:27;;;;;;;0.50;0.50;;;;;;;;;;5118241;27;20182;-76
2022/12/25 11:10:57;;;;;;;0.40;0.40;;;;;;;;;;5127293;28;20184;-76
2022/12/25 11:13:25;;;;;;;0.40;0.40;;;;;;;;;;5114505;28;20567;-75
2022/12/25 11:16:02;;;;;;;0.30;0.30;;;;;;;;;;5122393;27;20188;-76
2022/12/25 11:18:29;;;;;;;0.40;0.40;;;;;;;;;;5124360;28;20884;-75
2022/12/25 11:21:00;;;;;;;0.30;0.30;;;;;;;;;;5115150;28;20285;-75
2022/12/25 11:23:27;;;;;;;0.40;0.40;;;;;;;;;;5127488;28;20189;-76
2022/12/25 11:25:55;;;;;;;0.30;0.30;;;;;;;;;;5123873;27;20178;-75
2022/12/25 11:28:21;;;;;;;0.40;0.40;;;;;;;;;;5121529;27;20194;-75
2022/12/25 11:30:52;;;;;;;0.30;0.30;;;;;;;;;;5130871;27;20177;-76
2022/12/25 11:33:18;;;;;;;0.40;0.40;;;;;;;;;;5101102;27;20279;-75
2022/12/25 11:35:54;;;;;;;0.40;0.40;;;;;;;;;;5126556;27;20269;-75
2022/12/25 11:38:20;;;;;;;0.50;0.50;;;;;;;;;;5114565;28;20578;-76
2022/12/25 11:40:48;;;;;;;0.43;0.43;;;;;;;;;;5114400;28;20169;-76
2022/12/25 11:43:21;;;;;;;0.40;0.40;;;;;;;;;;5113627;28;20201;-76
2022/12/25 11:45:51;;;;;;;0.40;0.40;;;;;;;;;;5114010;28;20173;-76
2022/12/25 11:48:18;;;;;;;0.30;0.30;;;;;;;;;;5114164;28;20178;-76
2022/12/25 11:50:47;;;;;;;0.53;0.53;;;;;;;;;;5113958;28;20180;-76
2022/12/25 11:53:21;;;;;;;0.60;0.60;;;;;;;;;;5113345;28;20224;-76
2022/12/25 11:55:53;;;;;;;0.40;0.40;;;;;;;;;;5114054;28;20181;-76
2022/12/25 11:58:31;;;;;;;0.50;0.50;;;;;;;;;;5113855;27;20207;-77
2022/12/25 12:00:58;;;;;;;0.30;0.30;;;;;;;;;;5113606;28;20648;-76
2022/12/25 12:03:27;;;;;;;0.50;0.50;;;;;;;;;;5113177;28;20197;-76
2022/12/25 12:06:01;;;;;;;0.50;0.50;;;;;;;;;;5113827;28;20211;-76
2022/12/25 12:08:28;;;;;;;0.40;0.40;;;;;;;;;;5113425;28;20219;-74
2022/12/25 12:11:14;;;;;;;0.37;0.37;;;;;;;;;;5113968;28;20401;-76
2022/12/25 12:13:48;;;;;;;0.50;0.50;;;;;;;;;;5113166;28;20205;-75
2022/12/25 12:16:14;;;;;;;0.40;0.40;;;;;;;;;;5113617;28;20310;-76
2022/12/25 12:18:40;;;;;;;0.40;0.40;;;;;;;;;;5113643;28;20223;-76
2022/12/25 12:21:06;;;;;;;0.30;0.30;;;;;;;;;;5113505;28;20669;-77
2022/12/25 12:23:47;;;;;;;0.30;0.30;;;;;;;;;;5113083;28;20280;-77
2022/12/25 12:26:20;;;;;;;0.50;0.50;;;;;;;;;;5113483;28;20642;-77
2022/12/25 12:28:47;;;;;;;0.50;0.50;;;;;;;;;;5113471;28;20169;-76
2022/12/25 12:31:13;;;;;;;0.40;0.40;;;;;;;;;;5113226;28;20196;-75
2022/12/25 12:33:42;;;;;;;0.40;0.40;;;;;;;;;;5112304;28;20201;-74
2022/12/25 12:36:10;;;;;;;0.50;0.50;;;;;;;;;;5111007;28;20594;-75
2022/12/25 12:38:39;;;;;;;0.40;0.40;;;;;;;;;;5113775;27;20266;-74
2022/12/25 12:41:07;;;;;;;0.40;0.40;;;;;;;;;;5124266;27;20172;-75
2022/12/25 12:43:38;;;;;;;0.40;0.40;;;;;;;;;;5116754;27;20317;-75
2022/12/25 12:46:04;;;;;;;0.40;0.40;;;;;;;;;;5129238;27;20177;-75
2022/12/25 12:48:37;;;;;;;0.40;0.40;;;;;;;;;;5118878;27;20586;-76
2022/12/25 12:51:04;;;;;;;0.40;0.40;;;;;;;;;;5121614;27;20173;-76
2022/12/25 12:53:31;;;;;;;0.40;0.40;;;;;;;;;;5127091;27;20196;-75
2022/12/25 12:56:08;;;;;;;0.40;0.40;;;;;;;;;;5115685;27;20165;-76
2022/12/25 12:58:35;;;;;;;0.30;0.30;;;;;;;;;;5125732;27;20619;-75
2022/12/25 13:01:19;;;;;;;0.40;0.40;;;;;;;;;;5123469;27;20503;-75
2022/12/25 13:03:45;;;;;;;0.40;0.40;;;;;;;;;;5115238;27;20275;-75
2022/12/25 13:06:14;;;;;;;0.50;0.50;;;;;;;;;;5128675;27;20205;-75
2022/12/25 13:08:54;;;;;;;0.40;0.40;;;;;;;;;;5120201;27;20172;-75
2022/12/25 13:11:20;;;;;;;0.50;0.50;;;;;;;;;;5118943;27;20173;-76
2022/12/25 13:13:46;;;;;;;0.40;0.40;;;;;;;;;;5128268;27;20687;-75
2022/12/25 13:16:15;;;;;;;0.40;0.40;;;;;;;;;;5116311;27;20168;-76
2022/12/25 13:18:41;;;;;;;0.40;0.40;;;;;;;;;;5123871;27;20200;-76
2022/12/25 13:21:07;;;;;;;0.30;0.30;;;;;;;;;;5124059;27;20172;-75
2022/12/25 13:23:35;;;;;;;0.50;0.50;;;;;;;;;;5115908;27;20257;-76
2022/12/25 13:26:05;;;;;;;0.33;0.33;;;;;;;;;;5128925;27;20180;-76
2022/12/25 13:28:32;;;;;;;0.43;0.43;;;;;;;;;;5118544;27;20175;-76
2022/12/25 13:31:13;;;;;;;0.40;0.40;;;;;;;;;;5121697;27;20223;-76
2022/12/25 13:33:40;;;;;;;0.40;0.40;;;;;;;;;;5127539;27;20504;-76
2022/12/25 13:36:10;;;;;;;0.40;0.40;;;;;;;;;;5114962;27;20191;-76
2022/12/25 13:38:36;;;;;;;0.50;0.50;;;;;;;;;;5124344;27;20180;-76
2022/12/25 13:43:48;;;;;;;0.40;0.40;;;;;;;;;;5114562;27;20568;-76
2022/12/25 13:46:15;;;;;;;0.30;0.30;;;;;;;;;;5127416;27;20689;-75
2022/12/25 13:48:41;;;;;;;0.40;0.40;;;;;;;;;;5118605;27;20187;-75
2022/12/25 13:51:14;;;;;;;0.40;0.40;;;;;;;;;;5120002;27;20173;-75
2022/12/25 13:53:40;;;;;;;0.50;0.50;;;;;;;;;;5127534;27;20200;-75
2022/12/25 13:56:10;;;;;;;0.43;0.43;;;;;;;;;;5114431;27;20184;-74
2022/12/25 13:58:36;;;;;;;0.40;0.40;;;;;;;;;;5123915;27;20188;-75
2022/12/25 14:01:02;;;;;;;0.40;0.40;;;;;;;;;;5121005;27;20625;-75
2022/12/25 14:03:40;;;;;;;0.50;0.50;;;;;;;;;;5116286;27;20287;-75
2022/12/25 14:06:16;;;;;;;0.40;0.40;;;;;;;;;;5127739;27;20675;-75
2022/12/25 14:08:42;;;;;;;0.30;0.30;;;;;;;;;;5120344;27;20167;-75
2022/12/25 14:11:08;;;;;;;0.30;0.30;;;;;;;;;;5121952;27;20201;-75
2022/12/25 14:13:36;;;;;;;0.40;0.40;;;;;;;;;;5127035;27;20228;-74
2022/12/25 14:16:02;;;;;;;0.40;0.40;;;;;;;;;;5117189;27;20177;-74
2022/12/25 14:18:29;;;;;;;0.40;0.40;;;;;;;;;;5125364;27;20197;-75
2022/12/25 14:21:06;;;;;;;0.30;0.30;;;;;;;;;;5121309;27;20545;-75
2022/12/25 14:23:43;;;;;;;0.40;0.40;;;;;;;;;;5115423;28;20197;-75
2022/12/25 14:26:20;;;;;;;0.47;0.47;;;;;;;;;;5098143;28;20168;-75
2022/12/25 14:28:47;;;;;;;0.40;0.40;;;;;;;;;;5122532;28;20321;-75
2022/12/25 14:31:13;;;;;;;0.37;0.37;;;;;;;;;;5123697;28;20521;-76
2022/12/25 14:33:40;;;;;;;0.40;0.40;;;;;;;;;;5114236;28;20212;-75
2022/12/25 14:36:06;;;;;;;0.40;0.40;;;;;;;;;;5127627;28;20177;-75
2022/12/25 14:38:33;;;;;;;0.40;0.40;;;;;;;;;;5117568;28;20233;-74
2022/12/25 14:41:02;;;;;;;0.40;0.40;;;;;;;;;;5120399;27;20557;-75
2022/12/25 14:43:30;;;;;;;0.30;0.30;;;;;;;;;;5125657;28;20514;-75
2022/12/25 14:45:57;;;;;;;0.53;0.53;;;;;;;;;;5114070;28;20170;-75
2022/12/25 14:48:24;;;;;;;0.50;0.50;;;;;;;;;;5125586;27;20169;-75
2022/12/25 14:50:54;;;;;;;0.40;0.40;;;;;;;;;;5120083;28;20173;-75
2022/12/25 14:53:21;;;;;;;0.50;0.50;;;;;;;;;;5116698;28;20204;-76
2022/12/25 14:55:49;;;;;;;0.40;0.40;;;;;;;;;;5127557;28;20199;-75
2022/12/25 14:58:19;;;;;;;0.40;0.40;;;;;;;;;;5115405;27;20259;-75
2022/12/25 15:00:53;;;;;;;0.40;0.40;;;;;;;;;;5126195;27;20226;-75
2022/12/25 15:03:47;;;;;;;0.40;0.40;;;;;;;;;;5127476;27;20283;-75
2022/12/25 15:06:18;;;;;;;0.50;0.50;;;;;;;;;;5101546;27;20548;-76
2022/12/25 15:08:54;;;;;;;0.40;0.40;;;;;;;;;;5126236;27;20267;-75
2022/12/25 15:11:20;;;;;;;0.40;0.40;;;;;;;;;;5128514;27;20172;-76
2022/12/25 15:13:46;;;;;;;0.43;0.43;;;;;;;;;;5116972;27;20192;-76
2022/12/25 15:16:14;;;;;;;0.43;0.43;;;;;;;;;;5130664;27;20260;-76
2022/12/25 15:18:41;;;;;;;0.50;0.50;;;;;;;;;;5122522;27;20188;-76
2022/12/25 15:21:15;;;;;;;0.50;0.50;;;;;;;;;;5122840;27;20173;-76
2022/12/25 15:23:40;;;;;;;0.47;0.47;;;;;;;;;;5130749;27;20196;-76
2022/12/25 15:26:08;;;;;;;0.40;0.40;;;;;;;;;;5117629;27;20179;-75
2022/12/25 15:28:34;;;;;;;0.60;0.60;;;;;;;;;;5126959;27;20629;-76
2022/12/25 15:31:00;;;;;;;0.50;0.50;;;;;;;;;;5124996;27;20215;-75
2022/12/25 15:33:26;;;;;;;0.43;0.43;;;;;;;;;;5118398;27;20193;-76
2022/12/25 15:35:52;;;;;;;0.40;0.40;;;;;;;;;;5131099;27;20180;-76
2022/12/25 15:38:18;;;;;;;0.60;0.60;;;;;;;;;;5118973;27;20176;-76
2022/12/25 15:40:44;;;;;;;0.50;0.50;;;;;;;;;;5122954;27;20548;-76
2022/12/25 15:43:14;;;;;;;0.40;0.40;;;;;;;;;;5109905;27;20197;-74
2022/12/25 15:45:40;;;;;;;0.50;0.50;;;;;;;;;;5098796;28;20208;-75
2022/12/25 15:48:06;;;;;;;0.50;0.50;;;;;;;;;;5113594;28;20256;-74
2022/12/25 15:50:35;;;;;;;0.40;0.40;;;;;;;;;;5110296;28;20292;-73
2022/12/25 15:53:01;;;;;;;0.40;0.40;;;;;;;;;;5112149;28;20306;-75
2022/12/25 15:55:27;;;;;;;0.50;0.50;;;;;;;;;;5112325;27;20201;-75
2022/12/25 15:57:53;;;;;;;0.40;0.40;;;;;;;;;;5112196;28;20181;-74
2022/12/25 16:00:24;;;;;;;0.50;0.50;;;;;;;;;;5115041;28;20181;-75
2022/12/25 16:02:51;;;;;;;0.60;0.60;;;;;;;;;;5106061;28;20554;-74
2022/12/25 16:05:17;;;;;;;0.50;0.50;;;;;;;;;;5097970;28;20178;-75
2022/12/25 16:07:43;;;;;;;0.50;0.50;;;;;;;;;;5105796;28;20176;-73
2022/12/25 16:10:19;;;;;;;0.43;0.43;;;;;;;;;;5105262;28;20201;-74
2022/12/25 16:12:45;;;;;;;0.60;0.60;;;;;;;;;;5095212;28;20199;-73
2022/12/25 16:15:12;;;;;;;0.50;0.50;;;;;;;;;;5099734;28;20217;-76
2022/12/25 16:17:39;;;;;;;0.47;0.47;;;;;;;;;;5098692;28;20264;-73
2022/12/25 16:20:05;;;;;;;0.60;0.60;;;;;;;;;;5113555;28;20184;-74
2022/12/25 16:22:38;;;;;;;0.37;0.37;;;;;;;;;;5109075;28;20181;-73
2022/12/25 16:25:04;;;;;;;0.60;0.60;;;;;;;;;;5095101;28;20268;-74
2022/12/25 16:27:30;;;;;;;0.70;0.70;;;;;;;;;;5097791;28;20204;-74
2022/12/25 16:29:56;;;;;;;0.47;0.47;;;;;;;;;;5092357;28;20603;-74
2022/12/25 16:32:22;;;;;;;0.50;0.50;;;;;;;;;;5099993;28;20177;-74
2022/12/25 16:34:48;;;;;;;0.50;0.50;;;;;;;;;;5097657;28;20347;-75
2022/12/25 16:37:14;;;;;;;0.50;0.50;;;;;;;;;;5091888;28;20592;-76